Flight Track Log - Related Links

Times and Time Zones

All times are in EDT time to prevent confusion due to time zone crossing. See the GJS3710 flight status page for this flight to view local times or setup timezone preferences in your user account.

Time Position Orientation Groundspeed Altitude Reporting Facility
EDT Latitude Longitude Course Direction KTS MPH feet Rate Location/Type
Thu 03:31:54 PM 29.9781 -90.2539 193° South 148 170 600  Level Houston Center
Thu 03:33:05 PM 29.9281 -90.2675 193° South 177 204 2,700 2,164 Climbing Houston Center
Thu 03:33:56 PM 29.8897 -90.2333 142° Southeast 229 264 5,000 2,324 Climbing Houston Center
Thu 03:34:56 PM 29.9019 -90.1561 80° East 268 308 7,000 2,079 Climbing Houston Center
Thu 03:36:03 PM 29.9344 -90.0542 70° East 308 354 9,400 1,870 Climbing Houston Center
Thu 03:37:14 PM 29.9694 -89.9433 70° East 314 361 11,300 1,534 Climbing Houston Center
Thu 03:38:16 PM 30.0100 -89.8333 67° East 370 426 12,800 1,839 Climbing Houston Center
Thu 03:39:18 PM 30.1064 -89.8017 16° North 368 423 15,100 2,081 Climbing Houston Center
Thu 03:40:20 PM 30.2103 -89.7922 North 371 427 17,100 1,839 Climbing Houston Center
Thu 03:41:22 PM 30.3294 -89.7817 North 377 434 18,900 1,548 Climbing Houston Center
Thu 03:42:24 PM 30.4422 -89.7692 North 408 470 20,300 1,488 Climbing Houston Center
Thu 03:43:27 PM 30.5569 -89.7542 North 414 476 22,000 1,488 Climbing Houston Center
Thu 03:44:29 PM 30.6719 -89.7378 North 415 478 23,400 1,355 Climbing Houston Center
Thu 03:45:31 PM 30.7886 -89.7214 North 422 486 24,800 1,306 Climbing Houston Center
Thu 03:46:33 PM 30.9314 -89.7000 North 429 494 26,100 1,065 Climbing Houston Center
Thu 03:47:35 PM 31.0511 -89.7103 356° North 430 495 27,000 968 Climbing Houston Center
Thu 03:48:37 PM 31.1731 -89.7181 357° North 437 503 28,100 919 Climbing Houston Center
Thu 03:49:39 PM 31.2956 -89.7261 357° North 443 510 28,900 774 Climbing Houston Center
Thu 03:50:41 PM 31.4208 -89.7342 357° North 449 517 29,700 768 Climbing Houston Center
Thu 03:51:44 PM 31.5722 -89.7536 354° North 456 525 30,500 672 Climbing Houston Center
Thu 03:52:46 PM 31.6997 -89.7731 353° North 462 532 31,100 968 Climbing Houston Center
Thu 03:53:48 PM 31.8339 -89.7947 352° North 456 525 32,500 1,355 Climbing Houston Center
Thu 03:54:50 PM 31.9572 -89.8142 352° North 448 516 33,900 1,065 Climbing Houston Center
Thu 03:55:52 PM 32.0772 -89.8344 352° North 438 504 34,700 803 Climbing Houston Center
Thu 03:56:57 PM 32.2136 -89.8539 353° North 438 504 35,600 768 Climbing Memphis Center
Thu 03:57:57 PM 32.3328 -89.8753 351° North 433 498 36,300 900 Climbing Memphis Center
Thu 03:58:57 PM 32.4519 -89.8944 352° North 428 493 37,400 750 Climbing Memphis Center
Thu 03:59:57 PM 32.5667 -89.9136 352° North 428 493 37,800 300 Climbing Memphis Center
Thu 04:00:57 PM 32.6858 -89.9328 352° North 428 493 38,000 100 Climbing Memphis Center
Thu 04:01:57 PM 32.8028 -89.9544 351° North 428 493 38,000  Level Memphis Center
Thu 04:02:57 PM 32.9239 -89.9736 352° North 433 498 38,000  Level Memphis Center
Thu 04:03:57 PM 33.0492 -89.9953 352° North 438 504 38,000  Level Memphis Center
Thu 04:04:56 PM 33.1703 -90.0122 353° North 443 510 38,000  Level Memphis Center
Thu 04:05:57 PM 33.2914 -90.0317 352° North 443 510 38,000  Level Memphis Center
Thu 04:06:57 PM 33.4147 -90.0511 353° North 443 510 38,000  Level Memphis Center
Thu 04:07:57 PM 33.5336 -90.0706 352° North 443 510 38,000  Level Memphis Center
Thu 04:08:57 PM 33.6547 -90.0903 352° North 443 510 38,000  Level Memphis Center
Thu 04:09:57 PM 33.7758 -90.1097 352° North 443 510 38,000  Level Memphis Center
Thu 04:10:57 PM 33.8950 -90.1319 351° North 443 510 38,000  Level Memphis Center
Thu 04:12:57 PM 34.1411 -90.1689 353° North 443 510 38,000  Level Memphis Center
Thu 04:13:57 PM 34.2603 -90.1914 351° North 443 510 38,000  Level Memphis Center
Thu 04:14:57 PM 34.3814 -90.2111 352° North 443 510 38,000  Level Memphis Center
Thu 04:15:56 PM 34.4897 -90.2311 351° North 443 510 38,000  Level Memphis Center
Thu 04:16:57 PM 34.6108 -90.2536 351° North 443 510 38,000  Level Memphis Center
Thu 04:17:57 PM 34.7339 -90.2736 352° North 443 510 38,000  Level Memphis Center
Thu 04:18:57 PM 34.8572 -90.2939 352° North 450 518 38,000  Level Memphis Center
Thu 04:20:57 PM 35.1158 -90.3367 352° North 443 510 38,000  Level Memphis Center
Thu 04:21:56 PM 35.2389 -90.3569 352° North 446 513 38,000  Level Memphis Center
Thu 04:22:56 PM 35.3619 -90.3775 352° North 446 513 38,000  Level Memphis Center
Thu 04:23:56 PM 35.4850 -90.3953 353° North 446 513 38,000  Level Memphis Center
Thu 04:24:56 PM 35.6122 -90.4183 352° North 446 513 38,000  Level Memphis Center
Thu 04:25:57 PM 35.7269 -90.4414 351° North 446 513 38,000  Level Memphis Center
Thu 04:26:56 PM 35.8519 -90.4619 352° North 438 504 38,000  Level Memphis Center
Thu 04:27:56 PM 35.9750 -90.4853 351° North 443 510 38,000  Level Memphis Center
Thu 04:28:57 PM 36.1044 -90.5086 352° North 453 521 38,000  Level Memphis Center
Thu 04:29:57 PM 36.2336 -90.5319 352° North 464 534 38,000  Level Memphis Center
Thu 04:30:56 PM 36.3461 -90.5528 352° North 464 534 38,000  Level Memphis Center
Thu 04:32:33 PM 36.5500 -90.5828 353° North 470 541 38,000  Level Kansas City Center
Thu 04:33:35 PM 36.7097 -90.6106 352° North 477 549 38,000  Level Kansas City Center
Thu 04:34:37 PM 36.8447 -90.6339 352° North 483 556 38,000  Level Kansas City Center
Thu 04:35:39 PM 36.9778 -90.6581 352° North 483 556 38,000  Level Kansas City Center
Thu 04:36:41 PM 37.1117 -90.6800 353° North 483 556 38,000  Level Kansas City Center
Thu 04:37:43 PM 37.2447 -90.7036 352° North 481 554 38,000  Level Kansas City Center
Thu 04:38:45 PM 37.3875 -90.7294 352° North 474 545 38,000  Level Kansas City Center
Thu 04:39:48 PM 37.5108 -90.7519 352° North 471 542 38,000  Level Kansas City Center
Thu 04:40:50 PM 37.6447 -90.7769 352° North 467 537 38,000  Level Kansas City Center
Thu 04:41:52 PM 37.7731 -90.8006 352° North 465 535 38,000  Level Kansas City Center
Thu 04:42:54 PM 37.9033 -90.8239 352° North 469 540 38,000  Level Kansas City Center
Thu 04:43:56 PM 38.0575 -90.8522 352° North 467 537 38,000  Level Kansas City Center
Thu 04:44:58 PM 38.1872 -90.8761 352° North 469 540 38,000  Level Kansas City Center
Thu 04:46:00 PM 38.3144 -90.8997 352° North 464 534 38,000  Level Kansas City Center
Thu 04:47:02 PM 38.4439 -90.9242 352° North 465 535 38,000  Level Kansas City Center
Thu 04:48:04 PM 38.5731 -90.9492 351° North 466 536 38,000  Level Kansas City Center
Thu 04:49:06 PM 38.7036 -90.9528 359° North 470 541 38,000 -290 Level Kansas City Center
Thu 04:50:08 PM 38.8294 -90.8983 19° North 476 548 37,400 -774 Descending Kansas City Center
Thu 04:51:10 PM 38.9561 -90.8319 22° Northeast 484 557 36,400 -1,065 Descending Kansas City Center
Thu 04:52:12 PM 39.1039 -90.7503 23° Northeast 480 552 35,200 -1,065 Descending Kansas City Center
Thu 04:53:14 PM 39.2258 -90.6856 22° Northeast 473 544 34,200 -968 Descending Kansas City Center
Thu 04:54:16 PM 39.3533 -90.6139 23° Northeast 490 564 33,200 -581 Descending Kansas City Center
Thu 04:55:18 PM 39.4767 -90.5461 23° Northeast 487 560 33,000 -97 Descending Kansas City Center
Thu 04:56:20 PM 39.5981 -90.4778 23° Northeast 479 551 33,000  Level Kansas City Center
Thu 04:57:22 PM 39.7208 -90.4106 23° Northeast 478 550 33,000  Level Kansas City Center
Thu 04:58:24 PM 39.8436 -90.3417 23° Northeast 476 548 33,000  Level Kansas City Center
Thu 04:58:45 PM 39.8922 -90.3144 23° Northeast 477 549 33,000  Level Chicago Center
Thu 04:59:47 PM 40.0133 -90.2456 24° Northeast 477 549 33,000  Level Chicago Center
Thu 05:00:49 PM 40.1344 -90.1764 24° Northeast 475 547 33,000  Level Chicago Center
Thu 05:01:51 PM 40.2806 -90.0939 23° Northeast 477 549 33,000  Level Chicago Center
Thu 05:02:53 PM 40.4022 -90.0253 23° Northeast 476 548 33,000  Level Chicago Center
Thu 05:03:55 PM 40.5242 -89.9558 23° Northeast 472 543 33,000 -194 Level Chicago Center
Thu 05:04:57 PM 40.6456 -89.8869 23° Northeast 474 545 32,600 -919 Descending Chicago Center
Thu 05:05:59 PM 40.7647 -89.8153 24° Northeast 474 545 31,100 -1,440 Descending Chicago Center
Thu 05:07:02 PM 40.8900 -89.7450 23° Northeast 487 560 29,600 -2,160 Descending Chicago Center
Thu 05:08:04 PM 41.0244 -89.6669 24° Northeast 480 552 26,600 -2,661 Descending Chicago Center
Thu 05:09:06 PM 41.1414 -89.5972 24° Northeast 464 534 24,100 -2,226 Descending Chicago Center
Thu 05:10:08 PM 41.2133 -89.4589 55° Northeast 465 535 22,000 -2,371 Descending Chicago Center
Thu 05:11:10 PM 41.2853 -89.2792 62° Northeast 459 528 19,200 -2,226 Descending Chicago Center
Thu 05:12:12 PM 41.3344 -89.1586 61° Northeast 434 499 17,400 -2,177 Descending Chicago Center
Thu 05:13:14 PM 41.3983 -88.9961 62° Northeast 418 481 14,700 -2,323 Descending Chicago Center
Thu 05:14:16 PM 41.4503 -88.8633 62° Northeast 408 470 12,600 -1,694 Descending Chicago Center
Thu 05:15:18 PM 41.5014 -88.7353 62° Northeast 398 458 11,200 -768 Descending Chicago Center
Thu 05:16:21 PM 41.5486 -88.6158 62° Northeast 358 412 11,000 -96 Descending Chicago Center
Thu 05:17:23 PM 41.5878 -88.5183 62° Northeast 306 352 11,000 -726 Level Chicago Center
Thu 05:18:25 PM 41.6439 -88.4067 56° Northeast 304 350 9,500 -1,306 Descending Chicago Center
Thu 05:19:27 PM 41.7122 -88.3578 28° Northeast 292 336 8,300 -1,161 Descending Chicago Center
Thu 05:20:29 PM 41.7897 -88.3319 14° North 287 330 7,100 -1,065 Descending Chicago Center
Thu 05:21:31 PM 41.8658 -88.3075 13° North 283 326 6,100 -1,016 Descending Chicago Center
Thu 05:22:33 PM 41.9300 -88.2703 23° Northeast 265 305 5,000 -1,016 Descending Chicago Center
Thu 05:23:35 PM 41.9550 -88.1942 66° East 232 267 4,000 -871 Descending Chicago Center
Thu 05:24:37 PM 41.9683 -88.0989 79° East 219 252 3,200 -957 Descending Chicago Center
Thu 05:25:09 PM 41.9667 -88.0500 93° East 199 229 2,500 -977 Descending Chicago TRACON
Thu 05:26:03 PM 41.9667 -88.0000 90° East 168 193 1,800 -737 Descending Chicago TRACON
Thu 05:27:03 PM 41.9667 -87.9500 90° East 138 159 1,100 -700 Descending Chicago TRACON

Login

Don't have an account? Register now (free) for customized features, flight alerts, and more!